sensor_id;sensor_type;location;lat;lon;timestamp;pressure;altitude;pressure_sealevel;temperature;humidity
60854;BME280;48554;50.766;2.900;2022-10-16T00:01:05;100381.91;;;17.67;63.96
60854;BME280;48554;50.766;2.900;2022-10-16T00:03:25;100384.59;;;17.67;63.77
60854;BME280;48554;50.766;2.900;2022-10-16T00:05:46;100391.03;;;17.66;64.08
60854;BME280;48554;50.766;2.900;2022-10-16T00:08:07;100390.19;;;17.65;63.71
60854;BME280;48554;50.766;2.900;2022-10-16T00:10:28;100392.34;;;17.63;63.97
60854;BME280;48554;50.766;2.900;2022-10-16T00:12:48;100374.66;;;17.62;63.76
60854;BME280;48554;50.766;2.900;2022-10-16T00:15:09;100382.97;;;17.61;63.91
60854;BME280;48554;50.766;2.900;2022-10-16T00:17:29;100386.44;;;17.61;63.73
60854;BME280;48554;50.766;2.900;2022-10-16T00:19:50;100382.13;;;17.60;63.59
60854;BME280;48554;50.766;2.900;2022-10-16T00:22:10;100377.59;;;17.61;63.63
60854;BME280;48554;50.766;2.900;2022-10-16T00:24:30;100381.34;;;17.60;63.74
60854;BME280;48554;50.766;2.900;2022-10-16T00:26:51;100383.44;;;17.58;63.49
60854;BME280;48554;50.766;2.900;2022-10-16T00:29:11;100383.44;;;17.58;63.69
60854;BME280;48554;50.766;2.900;2022-10-16T00:31:31;100389.63;;;17.58;63.55
60854;BME280;48554;50.766;2.900;2022-10-16T00:33:52;100385.34;;;17.57;63.48
60854;BME280;48554;50.766;2.900;2022-10-16T00:36:15;100377.81;;;17.54;63.52
60854;BME280;48554;50.766;2.900;2022-10-16T00:38:35;100388.25;;;17.55;63.48
60854;BME280;48554;50.766;2.900;2022-10-16T00:40:56;100387.72;;;17.53;63.42
60854;BME280;48554;50.766;2.900;2022-10-16T00:43:36;100382.38;;;17.53;63.43
60854;BME280;48554;50.766;2.900;2022-10-16T00:45:58;100393.09;;;17.53;63.45
60854;BME280;48554;50.766;2.900;2022-10-16T00:48:18;100399.47;;;17.52;63.47
60854;BME280;48554;50.766;2.900;2022-10-16T00:50:39;100388.78;;;17.52;63.36
60854;BME280;48554;50.766;2.900;2022-10-16T00:53:00;100382.06;;;17.50;63.40
60854;BME280;48554;50.766;2.900;2022-10-16T00:55:22;100376.41;;;17.46;63.47
60854;BME280;48554;50.766;2.900;2022-10-16T00:57:43;100385.00;;;17.48;63.33
60854;BME280;48554;50.766;2.900;2022-10-16T01:00:07;100387.94;;;17.47;63.34
60854;BME280;48554;50.766;2.900;2022-10-16T01:02:27;100397.84;;;17.46;63.43
60854;BME280;48554;50.766;2.900;2022-10-16T01:04:50;100394.09;;;17.47;63.13
60854;BME280;48554;50.766;2.900;2022-10-16T01:12:50;100403.69;;;17.43;63.28
60854;BME280;48554;50.766;2.900;2022-10-16T01:15:26;100406.91;;;17.45;63.25
60854;BME280;48554;50.766;2.900;2022-10-16T01:18:01;100401.56;;;17.45;63.24
60854;BME280;48554;50.766;2.900;2022-10-16T01:20:30;100390.84;;;17.45;63.25
60854;BME280;48554;50.766;2.900;2022-10-16T01:25:42;100393.50;;;17.40;63.34
60854;BME280;48554;50.766;2.900;2022-10-16T01:28:10;100400.47;;;17.41;63.18
60854;BME280;48554;50.766;2.900;2022-10-16T01:30:33;100394.84;;;17.43;63.16
60854;BME280;48554;50.766;2.900;2022-10-16T01:32:59;100400.47;;;17.41;63.28
60854;BME280;48554;50.766;2.900;2022-10-16T01:35:32;100395.13;;;17.41;63.16
60854;BME280;48554;50.766;2.900;2022-10-16T01:40:18;100401.81;;;17.39;63.13
60854;BME280;48554;50.766;2.900;2022-10-16T01:42:42;100403.66;;;17.38;63.11
60854;BME280;48554;50.766;2.900;2022-10-16T01:45:05;100402.59;;;17.39;63.26
60854;BME280;48554;50.766;2.900;2022-10-16T01:47:27;100394.81;;;17.38;63.23
60854;BME280;48554;50.766;2.900;2022-10-16T01:49:51;100393.44;;;17.35;63.25
60854;BME280;48554;50.766;2.900;2022-10-16T01:52:18;100394.53;;;17.34;63.16
60854;BME280;48554;50.766;2.900;2022-10-16T01:54:43;100389.16;;;17.34;63.32
60854;BME280;48554;50.766;2.900;2022-10-16T01:57:06;100394.25;;;17.36;63.20
60854;BME280;48554;50.766;2.900;2022-10-16T01:59:28;100394.53;;;17.34;63.36
60854;BME280;48554;50.766;2.900;2022-10-16T02:02:00;100387.84;;;17.37;63.30
60854;BME280;48554;50.766;2.900;2022-10-16T02:06:41;100399.38;;;17.37;63.32
60854;BME280;48554;50.766;2.900;2022-10-16T02:09:02;100409.00;;;17.38;63.21
60854;BME280;48554;50.766;2.900;2022-10-16T02:11:22;100405.28;;;17.39;63.22
60854;BME280;48554;50.766;2.900;2022-10-16T02:13:45;100405.53;;;17.38;63.24
60854;BME280;48554;50.766;2.900;2022-10-16T02:16:08;100410.06;;;17.37;63.13
60854;BME280;48554;50.766;2.900;2022-10-16T02:18:29;100410.06;;;17.37;63.14
60854;BME280;48554;50.766;2.900;2022-10-16T02:21:05;100416.22;;;17.38;63.08
60854;BME280;48554;50.766;2.900;2022-10-16T02:23:51;100413.78;;;17.36;63.16
60854;BME280;48554;50.766;2.900;2022-10-16T02:26:25;100409.28;;;17.37;63.06
60854;BME280;48554;50.766;2.900;2022-10-16T02:28:59;100410.59;;;17.34;63.06
60854;BME280;48554;50.766;2.900;2022-10-16T02:31:26;100420.47;;;17.33;63.03
60854;BME280;48554;50.766;2.900;2022-10-16T02:33:47;100422.91;;;17.35;62.93
60854;BME280;48554;50.766;2.900;2022-10-16T02:36:08;100422.91;;;17.35;63.07
60854;BME280;48554;50.766;2.900;2022-10-16T02:38:30;100429.06;;;17.36;63.05
60854;BME280;48554;50.766;2.900;2022-10-16T02:40:50;100428.25;;;17.35;62.96
60854;BME280;48554;50.766;2.900;2022-10-16T02:43:11;100429.88;;;17.36;63.04
60854;BME280;48554;50.766;2.900;2022-10-16T02:45:32;100449.69;;;17.35;63.02
60854;BME280;48554;50.766;2.900;2022-10-16T02:47:52;100444.31;;;17.35;63.13
60854;BME280;48554;50.766;2.900;2022-10-16T02:50:13;100447.81;;;17.36;63.11
60854;BME280;48554;50.766;2.900;2022-10-16T02:52:33;100442.72;;;17.34;62.95
60854;BME280;48554;50.766;2.900;2022-10-16T02:54:53;100453.16;;;17.36;63.00
60854;BME280;48554;50.766;2.900;2022-10-16T02:57:13;100441.09;;;17.33;63.08
60854;BME280;48554;50.766;2.900;2022-10-16T02:59:34;100444.84;;;17.32;63.02
60854;BME280;48554;50.766;2.900;2022-10-16T03:01:54;100452.59;;;17.33;63.04
60854;BME280;48554;50.766;2.900;2022-10-16T03:04:14;100448.06;;;17.34;62.99
60854;BME280;48554;50.766;2.900;2022-10-16T03:06:35;100444.31;;;17.35;63.00
60854;BME280;48554;50.766;2.900;2022-10-16T03:08:55;100441.88;;;17.33;63.01
60854;BME280;48554;50.766;2.900;2022-10-16T03:11:15;100449.94;;;17.33;62.97
60854;BME280;48554;50.766;2.900;2022-10-16T03:13:35;100461.19;;;17.36;62.94
60854;BME280;48554;50.766;2.900;2022-10-16T03:15:56;100464.94;;;17.35;62.94
60854;BME280;48554;50.766;2.900;2022-10-16T03:18:16;100470.31;;;17.35;63.00
60854;BME280;48554;50.766;2.900;2022-10-16T03:20:36;100465.19;;;17.33;63.21
60854;BME280;48554;50.766;2.900;2022-10-16T03:22:56;100464.16;;;17.34;63.07
60854;BME280;48554;50.766;2.900;2022-10-16T03:25:17;100473.22;;;17.33;63.07
60854;BME280;48554;50.766;2.900;2022-10-16T03:27:37;100466.25;;;17.32;63.02
60854;BME280;48554;50.766;2.900;2022-10-16T03:29:57;100460.91;;;17.32;63.05
60854;BME280;48554;50.766;2.900;2022-10-16T03:32:18;100457.09;;;17.28;63.02
60854;BME280;48554;50.766;2.900;2022-10-16T03:34:38;100464.63;;;17.31;63.01
60854;BME280;48554;50.766;2.900;2022-10-16T03:36:58;100460.91;;;17.32;62.95
60854;BME280;48554;50.766;2.900;2022-10-16T03:39:19;100471.63;;;17.32;62.97
60854;BME280;48554;50.766;2.900;2022-10-16T03:41:39;100465.19;;;17.33;63.07
60854;BME280;48554;50.766;2.900;2022-10-16T03:43:59;100466.50;;;17.30;63.07
60854;BME280;48554;50.766;2.900;2022-10-16T03:46:19;100480.69;;;17.31;62.95
60854;BME280;48554;50.766;2.900;2022-10-16T03:48:40;100477.22;;;17.30;62.96
60854;BME280;48554;50.766;2.900;2022-10-16T03:51:00;100481.75;;;17.30;63.11
60854;BME280;48554;50.766;2.900;2022-10-16T03:53:20;100480.41;;;17.27;62.98
60854;BME280;48554;50.766;2.900;2022-10-16T03:55:42;100476.66;;;17.28;63.03
60854;BME280;48554;50.766;2.900;2022-10-16T03:58:02;100478.28;;;17.29;63.17
60854;BME280;48554;50.766;2.900;2022-10-16T04:00:23;100470.50;;;17.28;63.36
60854;BME280;48554;50.766;2.900;2022-10-16T04:02:43;100472.59;;;17.26;63.05
60854;BME280;48554;50.766;2.900;2022-10-16T04:05:03;100480.63;;;17.26;63.11
60854;BME280;48554;50.766;2.900;2022-10-16T04:07:24;100481.16;;;17.23;63.01
60854;BME280;48554;50.766;2.900;2022-10-16T04:09:44;100492.94;;;17.22;63.05
60854;BME280;48554;50.766;2.900;2022-10-16T04:12:04;100488.63;;;17.21;63.05
60854;BME280;48554;50.766;2.900;2022-10-16T04:14:25;100476.31;;;17.20;63.10
60854;BME280;48554;50.766;2.900;2022-10-16T04:16:45;100488.06;;;17.19;63.15
60854;BME280;48554;50.766;2.900;2022-10-16T04:19:05;100497.16;;;17.18;63.15
60854;BME280;48554;50.766;2.900;2022-10-16T04:21:25;100503.56;;;17.17;63.07
60854;BME280;48554;50.766;2.900;2022-10-16T04:23:46;100499.28;;;17.16;63.29
60854;BME280;48554;50.766;2.900;2022-10-16T04:26:06;100511.06;;;17.15;63.18
60854;BME280;48554;50.766;2.900;2022-10-16T04:28:27;100505.69;;;17.15;63.25
60854;BME280;48554;50.766;2.900;2022-10-16T04:30:47;100509.19;;;17.15;63.25
60854;BME280;48554;50.766;2.900;2022-10-16T04:33:09;100522.81;;;17.14;63.34
60854;BME280;48554;50.766;2.900;2022-10-16T04:35:29;100528.44;;;17.12;63.27
60854;BME280;48554;50.766;2.900;2022-10-16T04:37:52;100532.72;;;17.13;63.30
60854;BME280;48554;50.766;2.900;2022-10-16T04:40:13;100540.97;;;17.11;63.19
60854;BME280;48554;50.766;2.900;2022-10-16T04:42:33;100530.28;;;17.11;63.20
60854;BME280;48554;50.766;2.900;2022-10-16T04:44:53;100537.50;;;17.11;63.30
60854;BME280;48554;50.766;2.900;2022-10-16T04:47:14;100533.22;;;17.10;63.17
60854;BME280;48554;50.766;2.900;2022-10-16T04:49:34;100538.31;;;17.11;63.21
60854;BME280;48554;50.766;2.900;2022-10-16T04:51:54;100534.03;;;17.10;63.13
60854;BME280;48554;50.766;2.900;2022-10-16T04:54:14;100539.38;;;17.10;63.11
60854;BME280;48554;50.766;2.900;2022-10-16T04:56:35;100544.16;;;17.08;63.13
60854;BME280;48554;50.766;2.900;2022-10-16T04:58:55;100543.13;;;17.09;63.09
60854;BME280;48554;50.766;2.900;2022-10-16T05:01:15;100546.84;;;17.08;63.28
60854;BME280;48554;50.766;2.900;2022-10-16T05:03:36;100547.91;;;17.07;63.13
60854;BME280;48554;50.766;2.900;2022-10-16T05:05:56;100551.38;;;17.08;63.19
60854;BME280;48554;50.766;2.900;2022-10-16T05:08:16;100551.91;;;17.05;63.11
60854;BME280;48554;50.766;2.900;2022-10-16T05:10:37;100552.69;;;17.05;63.20
60854;BME280;48554;50.766;2.900;2022-10-16T05:12:57;100560.97;;;17.04;63.20
60854;BME280;48554;50.766;2.900;2022-10-16T05:15:18;100561.75;;;17.04;63.26
60854;BME280;48554;50.766;2.900;2022-10-16T05:17:38;100570.38;;;17.06;63.07
60854;BME280;48554;50.766;2.900;2022-10-16T05:19:58;100571.44;;;17.05;63.19
60854;BME280;48554;50.766;2.900;2022-10-16T05:22:18;100573.31;;;17.05;63.08
60854;BME280;48554;50.766;2.900;2022-10-16T05:24:39;100576.78;;;17.05;63.19
60854;BME280;48554;50.766;2.900;2022-10-16T05:26:59;100576.22;;;17.03;63.38
60854;BME280;48554;50.766;2.900;2022-10-16T05:29:19;100581.81;;;17.02;63.11
60854;BME280;48554;50.766;2.900;2022-10-16T05:31:40;100592.28;;;17.03;63.21
60854;BME280;48554;50.766;2.900;2022-10-16T05:34:00;100593.88;;;17.04;63.16
60854;BME280;48554;50.766;2.900;2022-10-16T05:36:21;100599.22;;;17.04;63.17
60854;BME280;48554;50.766;2.900;2022-10-16T05:38:41;100596.56;;;17.04;63.08
60854;BME280;48554;50.766;2.900;2022-10-16T05:41:02;100596.81;;;17.03;63.23
60854;BME280;48554;50.766;2.900;2022-10-16T05:43:23;100598.69;;;17.02;63.25
60854;BME280;48554;50.766;2.900;2022-10-16T05:45:43;100602.97;;;17.03;63.11
60854;BME280;48554;50.766;2.900;2022-10-16T05:48:04;100608.34;;;17.03;63.19
60854;BME280;48554;50.766;2.900;2022-10-16T05:50:24;100609.94;;;17.04;63.11
60854;BME280;48554;50.766;2.900;2022-10-16T05:52:44;100611.59;;;17.05;63.16
60854;BME280;48554;50.766;2.900;2022-10-16T05:55:05;100625.53;;;17.07;63.02
60854;BME280;48554;50.766;2.900;2022-10-16T05:57:25;100623.66;;;17.08;63.06
60854;BME280;48554;50.766;2.900;2022-10-16T05:59:45;100627.13;;;17.08;63.09
60854;BME280;48554;50.766;2.900;2022-10-16T06:02:07;100632.50;;;17.08;63.01
60854;BME280;48554;50.766;2.900;2022-10-16T06:04:28;100632.50;;;17.08;63.08
60854;BME280;48554;50.766;2.900;2022-10-16T06:06:49;100633.56;;;17.07;63.02
60854;BME280;48554;50.766;2.900;2022-10-16T06:09:09;100637.28;;;17.06;63.14
60854;BME280;48554;50.766;2.900;2022-10-16T06:11:32;100640.78;;;17.07;63.06
60854;BME280;48554;50.766;2.900;2022-10-16T06:13:54;100641.59;;;17.07;63.08
60854;BME280;48554;50.766;2.900;2022-10-16T06:16:15;100646.94;;;17.07;63.07
60854;BME280;48554;50.766;2.900;2022-10-16T06:18:35;100650.44;;;17.08;63.09
60854;BME280;48554;50.766;2.900;2022-10-16T06:20:56;100650.66;;;17.06;63.06
60854;BME280;48554;50.766;2.900;2022-10-16T06:23:17;100649.06;;;17.05;62.97
60854;BME280;48554;50.766;2.900;2022-10-16T06:25:37;100663.00;;;17.07;63.14
60854;BME280;48554;50.766;2.900;2022-10-16T06:27:57;100647.19;;;17.06;63.05
60854;BME280;48554;50.766;2.900;2022-10-16T06:30:18;100645.31;;;17.06;63.09
60854;BME280;48554;50.766;2.900;2022-10-16T06:32:38;100659.25;;;17.08;62.92
60854;BME280;48554;50.766;2.900;2022-10-16T06:34:58;100657.66;;;17.07;63.09
60854;BME280;48554;50.766;2.900;2022-10-16T06:37:18;100661.38;;;17.06;62.93
60854;BME280;48554;50.766;2.900;2022-10-16T06:39:39;100680.66;;;17.08;62.92
60854;BME280;48554;50.766;2.900;2022-10-16T06:41:59;100676.97;;;17.09;62.91
60854;BME280;48554;50.766;2.900;2022-10-16T06:44:19;100683.91;;;17.10;62.86
60854;BME280;48554;50.766;2.900;2022-10-16T06:46:39;100695.44;;;17.11;62.85
60854;BME280;48554;50.766;2.900;2022-10-16T06:49:00;100693.31;;;17.13;62.88
60854;BME280;48554;50.766;2.900;2022-10-16T06:51:21;100701.34;;;17.13;62.87
60854;BME280;48554;50.766;2.900;2022-10-16T06:53:46;100706.94;;;17.11;62.94
60854;BME280;48554;50.766;2.900;2022-10-16T06:56:11;100699.47;;;17.14;62.85
60854;BME280;48554;50.766;2.900;2022-10-16T06:58:31;100709.38;;;17.13;62.92
60854;BME280;48554;50.766;2.900;2022-10-16T07:00:55;100700.53;;;17.13;62.82
60854;BME280;48554;50.766;2.900;2022-10-16T07:03:15;100709.69;;;17.17;62.75
60854;BME280;48554;50.766;2.900;2022-10-16T07:05:40;100714.00;;;17.18;62.84
60854;BME280;48554;50.766;2.900;2022-10-16T07:08:00;100722.03;;;17.18;62.84
60854;BME280;48554;50.766;2.900;2022-10-16T07:10:20;100719.34;;;17.18;62.69
60854;BME280;48554;50.766;2.900;2022-10-16T07:12:41;100726.31;;;17.19;62.65
60854;BME280;48554;50.766;2.900;2022-10-16T07:15:01;100729.00;;;17.19;62.72
60854;BME280;48554;50.766;2.900;2022-10-16T07:17:21;100731.94;;;17.17;62.60
60854;BME280;48554;50.766;2.900;2022-10-16T07:19:42;100742.97;;;17.21;62.52
60854;BME280;48554;50.766;2.900;2022-10-16T07:22:02;100741.34;;;17.20;62.70
60854;BME280;48554;50.766;2.900;2022-10-16T07:24:22;100744.59;;;17.22;63.05
60854;BME280;48554;50.766;2.900;2022-10-16T07:26:44;100753.16;;;17.24;62.70
60854;BME280;48554;50.766;2.900;2022-10-16T07:29:07;100754.00;;;17.24;62.56
60854;BME280;48554;50.766;2.900;2022-10-16T07:31:27;100755.84;;;17.24;62.98
60854;BME280;48554;50.766;2.900;2022-10-16T07:33:48;100767.13;;;17.26;62.73
60854;BME280;48554;50.766;2.900;2022-10-16T07:36:09;100765.03;;;17.28;62.73
60854;BME280;48554;50.766;2.900;2022-10-16T07:38:30;100772.00;;;17.29;62.58
60854;BME280;48554;50.766;2.900;2022-10-16T07:40:58;100764.53;;;17.31;62.60
60854;BME280;48554;50.766;2.900;2022-10-16T07:43:18;100768.56;;;17.33;62.55
60854;BME280;48554;50.766;2.900;2022-10-16T07:45:47;100770.22;;;17.35;63.19
60854;BME280;48554;50.766;2.900;2022-10-16T07:48:07;100767.78;;;17.33;63.29
60854;BME280;48554;50.766;2.900;2022-10-16T07:50:28;100776.88;;;17.32;63.11
60854;BME280;48554;50.766;2.900;2022-10-16T07:52:48;100784.41;;;17.35;62.96
60854;BME280;48554;50.766;2.900;2022-10-16T07:55:08;100781.72;;;17.35;62.77
60854;BME280;48554;50.766;2.900;2022-10-16T07:57:28;100778.81;;;17.37;62.87
60854;BME280;48554;50.766;2.900;2022-10-16T07:59:49;100784.47;;;17.40;62.82
60854;BME280;48554;50.766;2.900;2022-10-16T08:02:09;100783.44;;;17.41;63.15
60854;BME280;48554;50.766;2.900;2022-10-16T08:04:29;100783.97;;;17.43;62.87
60854;BME280;48554;50.766;2.900;2022-10-16T08:06:50;100789.34;;;17.43;63.15
60854;BME280;48554;50.766;2.900;2022-10-16T08:09:10;100790.97;;;17.44;62.81
60854;BME280;48554;50.766;2.900;2022-10-16T08:11:31;100788.88;;;17.46;62.64
60854;BME280;48554;50.766;2.900;2022-10-16T08:13:51;100793.97;;;17.48;62.78
60854;BME280;48554;50.766;2.900;2022-10-16T08:16:11;100799.09;;;17.49;62.73
60854;BME280;48554;50.766;2.900;2022-10-16T08:18:32;100806.88;;;17.51;62.81
60854;BME280;48554;50.766;2.900;2022-10-16T08:20:59;100803.94;;;17.52;62.86
60854;BME280;48554;50.766;2.900;2022-10-16T08:23:19;100800.78;;;17.55;62.78
60854;BME280;48554;50.766;2.900;2022-10-16T08:25:40;100815.81;;;17.57;62.77
60854;BME280;48554;50.766;2.900;2022-10-16T08:28:03;100812.63;;;17.60;62.67
60854;BME280;48554;50.766;2.900;2022-10-16T08:30:23;100814.50;;;17.59;63.03
60854;BME280;48554;50.766;2.900;2022-10-16T08:32:44;100817.97;;;17.60;62.74
60854;BME280;48554;50.766;2.900;2022-10-16T08:35:04;100816.44;;;17.64;62.78
60854;BME280;48554;50.766;2.900;2022-10-16T08:37:29;100819.69;;;17.66;62.74
60854;BME280;48554;50.766;2.900;2022-10-16T08:39:50;100811.38;;;17.67;62.73
60854;BME280;48554;50.766;2.900;2022-10-16T08:50:12;100832.66;;;17.74;62.77
60854;BME280;48554;50.766;2.900;2022-10-16T08:52:35;100838.03;;;17.74;62.79
60854;BME280;48554;50.766;2.900;2022-10-16T08:54:58;100846.63;;;17.76;62.87
60854;BME280;48554;50.766;2.900;2022-10-16T08:57:24;100839.63;;;17.75;62.73
60854;BME280;48554;50.766;2.900;2022-10-16T08:59:44;100848.25;;;17.77;63.10
60854;BME280;48554;50.766;2.900;2022-10-16T09:05:02;100856.84;;;17.79;62.75
60854;BME280;48554;50.766;2.900;2022-10-16T09:07:57;100860.13;;;17.81;62.77
60854;BME280;48554;50.766;2.900;2022-10-16T09:10:38;100865.50;;;17.81;62.85
60854;BME280;48554;50.766;2.900;2022-10-16T09:13:07;100860.13;;;17.81;62.79
60854;BME280;48554;50.766;2.900;2022-10-16T09:15:43;100872.47;;;17.82;62.88
60854;BME280;48554;50.766;2.900;2022-10-16T09:18:37;100865.78;;;17.85;63.14
60854;BME280;48554;50.766;2.900;2022-10-16T09:21:25;100861.81;;;17.87;63.62
60854;BME280;48554;50.766;2.900;2022-10-16T09:23:45;100859.69;;;17.89;64.50
60854;BME280;48554;50.766;2.900;2022-10-16T09:26:11;100864.31;;;17.94;64.89
60854;BME280;48554;50.766;2.900;2022-10-16T09:28:32;100864.88;;;17.96;65.31
60854;BME280;48554;50.766;2.900;2022-10-16T09:30:52;100870.03;;;17.98;65.25
60854;BME280;48554;50.766;2.900;2022-10-16T09:33:13;100875.38;;;17.98;65.26
60854;BME280;48554;50.766;2.900;2022-10-16T09:35:40;100874.88;;;18.01;65.22
60854;BME280;48554;50.766;2.900;2022-10-16T09:38:00;100864.16;;;18.01;65.18
60854;BME280;48554;50.766;2.900;2022-10-16T09:40:32;100879.75;;;18.04;65.24
60854;BME280;48554;50.766;2.900;2022-10-16T09:43:03;100858.28;;;18.04;65.23
60854;BME280;48554;50.766;2.900;2022-10-16T09:45:26;100863.66;;;18.04;65.23
60854;BME280;48554;50.766;2.900;2022-10-16T09:47:46;100868.50;;;18.07;65.07
60854;BME280;48554;50.766;2.900;2022-10-16T09:50:22;100858.63;;;18.07;64.99
60854;BME280;48554;50.766;2.900;2022-10-16T09:52:43;100861.03;;;18.09;64.99
60854;BME280;48554;50.766;2.900;2022-10-16T09:55:14;100861.88;;;18.09;65.20
60854;BME280;48554;50.766;2.900;2022-10-16T09:57:35;100867.22;;;18.09;65.01
60854;BME280;48554;50.766;2.900;2022-10-16T09:59:57;100869.66;;;18.11;65.04
60854;BME280;48554;50.766;2.900;2022-10-16T10:02:20;100875.56;;;18.13;65.04
60854;BME280;48554;50.766;2.900;2022-10-16T10:04:50;100881.50;;;18.15;65.05
60854;BME280;48554;50.766;2.900;2022-10-16T10:07:21;100872.09;;;18.12;65.26
60854;BME280;48554;50.766;2.900;2022-10-16T10:09:45;100873.47;;;18.15;64.99
60854;BME280;48554;50.766;2.900;2022-10-16T10:12:17;100878.81;;;18.15;64.86
60854;BME280;48554;50.766;2.900;2022-10-16T10:14:47;100877.75;;;18.16;65.02
60854;BME280;48554;50.766;2.900;2022-10-16T10:17:17;100875.88;;;18.16;64.98
60854;BME280;48554;50.766;2.900;2022-10-16T10:19:58;100871.09;;;18.18;64.80
60854;BME280;48554;50.766;2.900;2022-10-16T10:33:12;100871.09;;;18.18;64.84
60854;BME280;48554;50.766;2.900;2022-10-16T10:46:04;100892.38;;;18.25;64.70
60854;BME280;48554;50.766;2.900;2022-10-16T10:51:07;100876.28;;;18.25;64.70
60854;BME280;48554;50.766;2.900;2022-10-16T10:59:00;100884.63;;;18.29;64.49
60854;BME280;48554;50.766;2.900;2022-10-16T11:01:25;100888.13;;;18.29;64.82
60854;BME280;48554;50.766;2.900;2022-10-16T11:06:24;100892.66;;;18.29;64.81
60854;BME280;48554;50.766;2.900;2022-10-16T11:09:02;100889.75;;;18.30;64.73
60854;BME280;48554;50.766;2.900;2022-10-16T11:11:41;100886.03;;;18.31;64.74
60854;BME280;48554;50.766;2.900;2022-10-16T11:16:43;100892.75;;;18.34;64.63
60854;BME280;48554;50.766;2.900;2022-10-16T11:19:18;100889.81;;;18.35;64.63
60854;BME280;48554;50.766;2.900;2022-10-16T11:24:37;100893.28;;;18.36;64.75
60854;BME280;48554;50.766;2.900;2022-10-16T11:27:04;100887.13;;;18.35;64.54
60854;BME280;48554;50.766;2.900;2022-10-16T11:29:30;100881.25;;;18.38;64.49
60854;BME280;48554;50.766;2.900;2022-10-16T11:32:05;100873.22;;;18.38;64.57
60854;BME280;48554;50.766;2.900;2022-10-16T11:34:36;100881.25;;;18.38;64.41
60854;BME280;48554;50.766;2.900;2022-10-16T11:37:08;100875.88;;;18.38;64.58
60854;BME280;48554;50.766;2.900;2022-10-16T11:39:31;100888.25;;;18.39;64.49
60854;BME280;48554;50.766;2.900;2022-10-16T11:42:03;100885.00;;;18.37;64.50
60854;BME280;48554;50.766;2.900;2022-10-16T11:50:09;100900.28;;;18.37;64.41
60854;BME280;48554;50.766;2.900;2022-10-16T11:53:25;100909.38;;;18.36;64.43
60854;BME280;48554;50.766;2.900;2022-10-16T11:55:25;100894.38;;;18.35;64.36
60854;BME280;48554;50.766;2.900;2022-10-16T11:58:03;100889.00;;;18.35;64.28
60854;BME280;48554;50.766;2.900;2022-10-16T12:00:28;100885.50;;;18.34;64.20
60854;BME280;48554;50.766;2.900;2022-10-16T12:02:58;100882.84;;;18.34;64.16
60854;BME280;48554;50.766;2.900;2022-10-16T12:05:46;100887.13;;;18.35;64.11
60854;BME280;48554;50.766;2.900;2022-10-16T12:08:15;100886.31;;;18.35;64.21
60854;BME280;48554;50.766;2.900;2022-10-16T12:10:37;100880.97;;;18.35;64.15
60854;BME280;48554;50.766;2.900;2022-10-16T12:12:58;100876.66;;;18.34;64.19
60854;BME280;48554;50.766;2.900;2022-10-16T12:15:25;100865.94;;;18.34;64.16
60854;BME280;48554;50.766;2.900;2022-10-16T12:17:46;100862.41;;;18.33;64.08
60854;BME280;48554;50.766;2.900;2022-10-16T12:22:32;100866.16;;;18.32;64.04
60854;BME280;48554;50.766;2.900;2022-10-16T12:24:53;100856.00;;;18.34;63.99
60854;BME280;48554;50.766;2.900;2022-10-16T12:27:28;100862.97;;;18.35;63.95
60854;BME280;48554;50.766;2.900;2022-10-16T12:29:55;100852.53;;;18.34;63.99
60854;BME280;48554;50.766;2.900;2022-10-16T12:32:36;100852.25;;;18.35;63.99
60854;BME280;48554;50.766;2.900;2022-10-16T12:34:59;100859.25;;;18.36;64.10
60854;BME280;48554;50.766;2.900;2022-10-16T12:37:26;100853.63;;;18.38;64.07
60854;BME280;48554;50.766;2.900;2022-10-16T12:39:49;100859.00;;;18.38;64.04
60854;BME280;48554;50.766;2.900;2022-10-16T12:44:47;100864.34;;;18.38;64.08
60854;BME280;48554;50.766;2.900;2022-10-16T12:47:19;100862.75;;;18.37;63.97
60854;BME280;48554;50.766;2.900;2022-10-16T12:49:49;100848.25;;;18.38;64.13
60854;BME280;48554;50.766;2.900;2022-10-16T12:52:26;100850.38;;;18.36;64.10
60854;BME280;48554;50.766;2.900;2022-10-16T12:54:46;100847.16;;;18.34;64.20
60854;BME280;48554;50.766;2.900;2022-10-16T12:59:52;100852.53;;;18.34;64.13
60854;BME280;48554;50.766;2.900;2022-10-16T13:05:08;100859.50;;;18.35;64.04
60854;BME280;48554;50.766;2.900;2022-10-16T13:10:25;100856.56;;;18.36;64.02
60854;BME280;48554;50.766;2.900;2022-10-16T13:13:10;100853.63;;;18.38;64.02
60854;BME280;48554;50.766;2.900;2022-10-16T13:15:47;100845.56;;;18.38;64.11
60854;BME280;48554;50.766;2.900;2022-10-16T13:18:55;100839.16;;;18.39;64.08
60854;BME280;48554;50.766;2.900;2022-10-16T13:29:03;100841.09;;;18.44;64.26
60854;BME280;48554;50.766;2.900;2022-10-16T13:31:24;100833.06;;;18.44;64.22
60854;BME280;48554;50.766;2.900;2022-10-16T13:33:47;100837.34;;;18.45;64.36
60854;BME280;48554;50.766;2.900;2022-10-16T13:36:27;100850.53;;;18.46;64.19
60854;BME280;48554;50.766;2.900;2022-10-16T13:38:48;100851.31;;;18.47;64.39
60854;BME280;48554;50.766;2.900;2022-10-16T13:41:17;100854.56;;;18.49;64.24
60854;BME280;48554;50.766;2.900;2022-10-16T13:43:40;100852.13;;;18.47;64.23
60854;BME280;48554;50.766;2.900;2022-10-16T13:46:06;100850.00;;;18.49;64.23
60854;BME280;48554;50.766;2.900;2022-10-16T13:48:27;100845.44;;;18.50;64.25
60854;BME280;48554;50.766;2.900;2022-10-16T13:50:59;100842.75;;;18.50;64.14
60854;BME280;48554;50.766;2.900;2022-10-16T13:53:19;100857.81;;;18.51;64.29
60854;BME280;48554;50.766;2.900;2022-10-16T13:55:39;100856.75;;;18.52;64.30
60854;BME280;48554;50.766;2.900;2022-10-16T13:58:13;100854.06;;;18.52;64.25
60854;BME280;48554;50.766;2.900;2022-10-16T14:00:34;100855.66;;;18.53;64.23